sensor_id;sensor_type;location;lat;lon;timestamp;temperature;humidity
39621;DHT22;25309;48.686;9.170;2023-07-24T00:01:23;20.40;97.80
39621;DHT22;25309;48.686;9.170;2023-07-24T00:03:50;20.40;98.00
39621;DHT22;25309;48.686;9.170;2023-07-24T00:06:19;20.40;97.80
39621;DHT22;25309;48.686;9.170;2023-07-24T00:08:46;20.40;97.80
39621;DHT22;25309;48.686;9.170;2023-07-24T00:11:13;20.30;98.30
39621;DHT22;25309;48.686;9.170;2023-07-24T00:13:40;20.40;98.20
39621;DHT22;25309;48.686;9.170;2023-07-24T00:16:07;20.30;98.60
39621;DHT22;25309;48.686;9.170;2023-07-24T00:18:35;20.30;98.50
39621;DHT22;25309;48.686;9.170;2023-07-24T00:21:02;20.30;98.50
39621;DHT22;25309;48.686;9.170;2023-07-24T00:23:30;20.30;98.70
39621;DHT22;25309;48.686;9.170;2023-07-24T00:25:57;20.20;98.90
39621;DHT22;25309;48.686;9.170;2023-07-24T00:28:24;20.10;98.40
39621;DHT22;25309;48.686;9.170;2023-07-24T00:30:52;20.10;98.80
39621;DHT22;25309;48.686;9.170;2023-07-24T00:33:19;20.10;98.80
39621;DHT22;25309;48.686;9.170;2023-07-24T00:35:46;20.00;99.10
39621;DHT22;25309;48.686;9.170;2023-07-24T00:38:13;20.00;98.90
39621;DHT22;25309;48.686;9.170;2023-07-24T00:40:41;19.90;99.10
39621;DHT22;25309;48.686;9.170;2023-07-24T00:43:08;19.90;99.00
39621;DHT22;25309;48.686;9.170;2023-07-24T00:45:35;19.90;99.40
39621;DHT22;25309;48.686;9.170;2023-07-24T00:48:03;19.80;99.40
39621;DHT22;25309;48.686;9.170;2023-07-24T00:50:30;19.80;99.60
39621;DHT22;25309;48.686;9.170;2023-07-24T00:52:58;19.70;99.70
39621;DHT22;25309;48.686;9.170;2023-07-24T00:55:26;19.70;99.80
39621;DHT22;25309;48.686;9.170;2023-07-24T00:57:55;19.70;99.90
39621;DHT22;25309;48.686;9.170;2023-07-24T01:00:23;19.70;99.90
39621;DHT22;25309;48.686;9.170;2023-07-24T01:02:51;19.80;99.90
39621;DHT22;25309;48.686;9.170;2023-07-24T01:05:18;19.80;99.90
39621;DHT22;25309;48.686;9.170;2023-07-24T01:07:46;19.80;99.90
39621;DHT22;25309;48.686;9.170;2023-07-24T01:10:14;19.70;99.90
39621;DHT22;25309;48.686;9.170;2023-07-24T01:12:47;19.70;99.90
39621;DHT22;25309;48.686;9.170;2023-07-24T01:15:23;19.60;99.90
39621;DHT22;25309;48.686;9.170;2023-07-24T01:17:58;19.50;99.90
39621;DHT22;25309;48.686;9.170;2023-07-24T01:20:28;19.50;99.90
39621;DHT22;25309;48.686;9.170;2023-07-24T01:23:10;19.40;99.90
39621;DHT22;25309;48.686;9.170;2023-07-24T01:25:53;19.30;99.90
39621;DHT22;25309;48.686;9.170;2023-07-24T01:28:21;19.30;99.90
39621;DHT22;25309;48.686;9.170;2023-07-24T01:30:48;19.20;99.90
39621;DHT22;25309;48.686;9.170;2023-07-24T01:33:15;19.20;99.90
39621;DHT22;25309;48.686;9.170;2023-07-24T01:35:49;19.10;99.90
39621;DHT22;25309;48.686;9.170;2023-07-24T01:38:17;19.10;99.90
39621;DHT22;25309;48.686;9.170;2023-07-24T01:40:47;19.10;99.90
39621;DHT22;25309;48.686;9.170;2023-07-24T01:43:14;19.00;99.90
39621;DHT22;25309;48.686;9.170;2023-07-24T01:45:41;19.00;99.90
39621;DHT22;25309;48.686;9.170;2023-07-24T01:48:08;19.00;99.90
39621;DHT22;25309;48.686;9.170;2023-07-24T01:50:35;19.00;99.90
39621;DHT22;25309;48.686;9.170;2023-07-24T01:53:02;19.00;99.90
39621;DHT22;25309;48.686;9.170;2023-07-24T01:55:29;19.00;99.90
39621;DHT22;25309;48.686;9.170;2023-07-24T01:57:58;19.10;99.90
39621;DHT22;25309;48.686;9.170;2023-07-24T02:00:25;19.10;99.90
39621;DHT22;25309;48.686;9.170;2023-07-24T02:02:58;19.10;99.90
39621;DHT22;25309;48.686;9.170;2023-07-24T02:05:26;19.10;99.90
39621;DHT22;25309;48.686;9.170;2023-07-24T02:07:53;19.20;99.90
39621;DHT22;25309;48.686;9.170;2023-07-24T02:10:20;19.10;99.90
39621;DHT22;25309;48.686;9.170;2023-07-24T02:12:47;19.10;99.90
39621;DHT22;25309;48.686;9.170;2023-07-24T02:15:15;19.10;99.90
39621;DHT22;25309;48.686;9.170;2023-07-24T02:17:42;19.10;99.90
39621;DHT22;25309;48.686;9.170;2023-07-24T02:20:10;19.00;99.90
39621;DHT22;25309;48.686;9.170;2023-07-24T02:22:37;19.10;99.90
39621;DHT22;25309;48.686;9.170;2023-07-24T02:25:06;19.00;99.90
39621;DHT22;25309;48.686;9.170;2023-07-24T02:27:33;19.00;99.90
39621;DHT22;25309;48.686;9.170;2023-07-24T02:30:01;19.00;99.80
39621;DHT22;25309;48.686;9.170;2023-07-24T02:32:30;19.00;99.80
39621;DHT22;25309;48.686;9.170;2023-07-24T02:34:59;19.00;99.90
39621;DHT22;25309;48.686;9.170;2023-07-24T02:37:26;18.90;99.90
39621;DHT22;25309;48.686;9.170;2023-07-24T02:39:53;18.90;99.90
39621;DHT22;25309;48.686;9.170;2023-07-24T02:42:20;18.80;99.90
39621;DHT22;25309;48.686;9.170;2023-07-24T02:44:47;18.70;99.90
39621;DHT22;25309;48.686;9.170;2023-07-24T02:47:14;18.60;99.90
39621;DHT22;25309;48.686;9.170;2023-07-24T02:49:42;18.60;99.90
39621;DHT22;25309;48.686;9.170;2023-07-24T02:52:09;18.60;99.90
39621;DHT22;25309;48.686;9.170;2023-07-24T02:54:36;18.50;99.90
39621;DHT22;25309;48.686;9.170;2023-07-24T02:57:04;18.50;99.90
39621;DHT22;25309;48.686;9.170;2023-07-24T02:59:32;18.50;99.90
39621;DHT22;25309;48.686;9.170;2023-07-24T03:01:59;18.40;99.90
39621;DHT22;25309;48.686;9.170;2023-07-24T03:04:26;18.40;99.90
39621;DHT22;25309;48.686;9.170;2023-07-24T03:06:54;18.40;99.90
39621;DHT22;25309;48.686;9.170;2023-07-24T03:09:22;18.30;99.90
39621;DHT22;25309;48.686;9.170;2023-07-24T03:11:48;18.30;99.90
39621;DHT22;25309;48.686;9.170;2023-07-24T03:14:15;18.20;99.90
39621;DHT22;25309;48.686;9.170;2023-07-24T03:16:43;18.20;99.90
39621;DHT22;25309;48.686;9.170;2023-07-24T03:19:10;18.20;99.90
39621;DHT22;25309;48.686;9.170;2023-07-24T03:21:37;18.10;99.90
39621;DHT22;25309;48.686;9.170;2023-07-24T03:24:05;18.10;99.90
39621;DHT22;25309;48.686;9.170;2023-07-24T03:26:33;18.00;99.90
39621;DHT22;25309;48.686;9.170;2023-07-24T03:29:00;18.00;99.90
39621;DHT22;25309;48.686;9.170;2023-07-24T03:31:27;18.00;99.90
39621;DHT22;25309;48.686;9.170;2023-07-24T03:33:54;18.00;99.90
39621;DHT22;25309;48.686;9.170;2023-07-24T03:36:21;18.00;99.90
39621;DHT22;25309;48.686;9.170;2023-07-24T03:38:51;18.00;99.90
39621;DHT22;25309;48.686;9.170;2023-07-24T03:41:19;18.00;99.90
39621;DHT22;25309;48.686;9.170;2023-07-24T03:43:46;17.90;99.90
39621;DHT22;25309;48.686;9.170;2023-07-24T03:46:13;17.90;99.90
39621;DHT22;25309;48.686;9.170;2023-07-24T03:48:40;17.90;99.90
39621;DHT22;25309;48.686;9.170;2023-07-24T03:51:08;18.00;99.90
39621;DHT22;25309;48.686;9.170;2023-07-24T03:53:35;18.00;99.90
39621;DHT22;25309;48.686;9.170;2023-07-24T03:56:02;18.10;99.90
39621;DHT22;25309;48.686;9.170;2023-07-24T03:58:30;18.10;99.90
39621;DHT22;25309;48.686;9.170;2023-07-24T04:00:58;18.20;99.90
39621;DHT22;25309;48.686;9.170;2023-07-24T04:03:25;18.20;99.90
39621;DHT22;25309;48.686;9.170;2023-07-24T04:05:52;18.40;99.90
39621;DHT22;25309;48.686;9.170;2023-07-24T04:08:19;18.40;99.90
39621;DHT22;25309;48.686;9.170;2023-07-24T04:10:46;18.50;99.90
39621;DHT22;25309;48.686;9.170;2023-07-24T04:13:13;18.50;99.90
39621;DHT22;25309;48.686;9.170;2023-07-24T04:15:41;18.50;99.90
39621;DHT22;25309;48.686;9.170;2023-07-24T04:18:08;18.50;99.90
39621;DHT22;25309;48.686;9.170;2023-07-24T04:20:35;18.60;99.90
39621;DHT22;25309;48.686;9.170;2023-07-24T04:23:02;18.60;99.90
39621;DHT22;25309;48.686;9.170;2023-07-24T04:25:29;18.60;99.90
39621;DHT22;25309;48.686;9.170;2023-07-24T04:27:56;18.60;99.90
39621;DHT22;25309;48.686;9.170;2023-07-24T04:30:23;18.60;99.90
39621;DHT22;25309;48.686;9.170;2023-07-24T04:32:52;18.70;99.90
39621;DHT22;25309;48.686;9.170;2023-07-24T04:35:19;18.70;99.90
39621;DHT22;25309;48.686;9.170;2023-07-24T04:37:46;18.90;99.90
39621;DHT22;25309;48.686;9.170;2023-07-24T04:40:13;18.90;99.90
39621;DHT22;25309;48.686;9.170;2023-07-24T04:42:40;18.90;99.90
39621;DHT22;25309;48.686;9.170;2023-07-24T04:45:08;19.00;99.90
39621;DHT22;25309;48.686;9.170;2023-07-24T04:47:35;19.00;99.90
39621;DHT22;25309;48.686;9.170;2023-07-24T04:50:06;19.00;99.90
39621;DHT22;25309;48.686;9.170;2023-07-24T04:52:33;19.00;99.90
39621;DHT22;25309;48.686;9.170;2023-07-24T04:55:00;18.90;99.90
39621;DHT22;25309;48.686;9.170;2023-07-24T04:57:26;18.90;99.90
39621;DHT22;25309;48.686;9.170;2023-07-24T04:59:53;18.90;99.90
39621;DHT22;25309;48.686;9.170;2023-07-24T05:02:20;18.90;99.90
39621;DHT22;25309;48.686;9.170;2023-07-24T05:04:47;18.90;99.90
39621;DHT22;25309;48.686;9.170;2023-07-24T05:07:16;19.00;99.90
39621;DHT22;25309;48.686;9.170;2023-07-24T05:09:43;19.10;99.90
39621;DHT22;25309;48.686;9.170;2023-07-24T05:12:09;19.10;99.90
39621;DHT22;25309;48.686;9.170;2023-07-24T05:14:36;19.20;99.90
39621;DHT22;25309;48.686;9.170;2023-07-24T05:17:04;19.30;99.90
39621;DHT22;25309;48.686;9.170;2023-07-24T05:19:31;19.30;99.90
39621;DHT22;25309;48.686;9.170;2023-07-24T05:21:57;19.30;99.90
39621;DHT22;25309;48.686;9.170;2023-07-24T05:24:27;19.30;99.90
39621;DHT22;25309;48.686;9.170;2023-07-24T05:26:54;19.30;99.90
39621;DHT22;25309;48.686;9.170;2023-07-24T05:29:21;19.30;99.90
39621;DHT22;25309;48.686;9.170;2023-07-24T05:31:48;19.30;99.90
39621;DHT22;25309;48.686;9.170;2023-07-24T05:34:15;19.30;99.90
39621;DHT22;25309;48.686;9.170;2023-07-24T05:36:42;19.50;99.90
39621;DHT22;25309;48.686;9.170;2023-07-24T05:39:09;19.60;99.90
39621;DHT22;25309;48.686;9.170;2023-07-24T05:41:38;19.70;99.90
39621;DHT22;25309;48.686;9.170;2023-07-24T05:44:06;19.70;99.90
39621;DHT22;25309;48.686;9.170;2023-07-24T05:46:33;19.80;99.90
39621;DHT22;25309;48.686;9.170;2023-07-24T05:49:01;19.80;99.90
39621;DHT22;25309;48.686;9.170;2023-07-24T05:51:28;19.80;99.80
39621;DHT22;25309;48.686;9.170;2023-07-24T05:53:55;19.80;99.90
39621;DHT22;25309;48.686;9.170;2023-07-24T05:56:22;19.60;99.90
39621;DHT22;25309;48.686;9.170;2023-07-24T05:58:50;19.50;99.90
39621;DHT22;25309;48.686;9.170;2023-07-24T06:01:17;19.50;99.90
39621;DHT22;25309;48.686;9.170;2023-07-24T06:03:44;19.40;99.90
39621;DHT22;25309;48.686;9.170;2023-07-24T06:06:11;19.30;99.90
39621;DHT22;25309;48.686;9.170;2023-07-24T06:08:38;19.30;99.90
39621;DHT22;25309;48.686;9.170;2023-07-24T06:11:05;19.10;99.90
39621;DHT22;25309;48.686;9.170;2023-07-24T06:13:32;19.10;99.90
39621;DHT22;25309;48.686;9.170;2023-07-24T06:16:01;19.10;99.90
39621;DHT22;25309;48.686;9.170;2023-07-24T06:18:28;19.10;99.90
39621;DHT22;25309;48.686;9.170;2023-07-24T06:20:55;19.00;99.90
39621;DHT22;25309;48.686;9.170;2023-07-24T06:23:22;19.10;99.90
39621;DHT22;25309;48.686;9.170;2023-07-24T06:25:49;19.10;99.90
39621;DHT22;25309;48.686;9.170;2023-07-24T06:28:16;19.10;99.90
39621;DHT22;25309;48.686;9.170;2023-07-24T06:30:43;19.20;99.90
39621;DHT22;25309;48.686;9.170;2023-07-24T06:33:11;19.20;99.90
39621;DHT22;25309;48.686;9.170;2023-07-24T06:35:38;19.20;99.90
39621;DHT22;25309;48.686;9.170;2023-07-24T06:38:05;19.30;99.90
39621;DHT22;25309;48.686;9.170;2023-07-24T06:40:35;19.40;99.90
39621;DHT22;25309;48.686;9.170;2023-07-24T06:43:02;19.40;99.90
39621;DHT22;25309;48.686;9.170;2023-07-24T06:45:29;19.40;99.90
39621;DHT22;25309;48.686;9.170;2023-07-24T06:47:56;19.50;99.90
39621;DHT22;25309;48.686;9.170;2023-07-24T06:50:24;19.60;99.90
39621;DHT22;25309;48.686;9.170;2023-07-24T06:52:51;19.70;99.90
39621;DHT22;25309;48.686;9.170;2023-07-24T06:55:20;19.80;99.90
39621;DHT22;25309;48.686;9.170;2023-07-24T06:57:47;19.80;99.90
39621;DHT22;25309;48.686;9.170;2023-07-24T07:00:14;19.90;99.90
39621;DHT22;25309;48.686;9.170;2023-07-24T07:02:41;19.90;99.90
39621;DHT22;25309;48.686;9.170;2023-07-24T07:05:09;19.90;99.90
39621;DHT22;25309;48.686;9.170;2023-07-24T07:07:37;20.00;99.90
39621;DHT22;25309;48.686;9.170;2023-07-24T07:10:07;20.00;99.90
39621;DHT22;25309;48.686;9.170;2023-07-24T07:12:34;20.00;99.90
39621;DHT22;25309;48.686;9.170;2023-07-24T07:15:01;20.10;99.90
39621;DHT22;25309;48.686;9.170;2023-07-24T07:17:28;20.20;99.90
39621;DHT22;25309;48.686;9.170;2023-07-24T07:19:55;20.20;99.90
39621;DHT22;25309;48.686;9.170;2023-07-24T07:22:23;20.30;99.90
39621;DHT22;25309;48.686;9.170;2023-07-24T07:24:51;20.40;99.90
39621;DHT22;25309;48.686;9.170;2023-07-24T07:27:18;20.50;99.90
39621;DHT22;25309;48.686;9.170;2023-07-24T07:29:46;20.50;99.90
39621;DHT22;25309;48.686;9.170;2023-07-24T07:32:13;20.60;99.90
39621;DHT22;25309;48.686;9.170;2023-07-24T07:34:40;20.70;99.90
39621;DHT22;25309;48.686;9.170;2023-07-24T07:37:07;20.80;99.90
39621;DHT22;25309;48.686;9.170;2023-07-24T07:39:34;20.80;99.90
39621;DHT22;25309;48.686;9.170;2023-07-24T07:42:02;20.90;99.90
39621;DHT22;25309;48.686;9.170;2023-07-24T07:44:43;20.90;99.90
39621;DHT22;25309;48.686;9.170;2023-07-24T07:47:10;21.00;99.90
39621;DHT22;25309;48.686;9.170;2023-07-24T07:49:37;21.00;99.90
39621;DHT22;25309;48.686;9.170;2023-07-24T07:52:06;21.00;99.90
39621;DHT22;25309;48.686;9.170;2023-07-24T07:54:33;21.10;99.90
39621;DHT22;25309;48.686;9.170;2023-07-24T07:57:01;21.20;99.90
39621;DHT22;25309;48.686;9.170;2023-07-24T07:59:28;21.30;99.90
39621;DHT22;25309;48.686;9.170;2023-07-24T08:01:55;21.30;99.90
39621;DHT22;25309;48.686;9.170;2023-07-24T08:04:22;21.20;99.90
39621;DHT22;25309;48.686;9.170;2023-07-24T08:06:49;21.10;99.90
39621;DHT22;25309;48.686;9.170;2023-07-24T08:09:16;21.10;99.90
39621;DHT22;25309;48.686;9.170;2023-07-24T08:11:44;21.10;99.90
39621;DHT22;25309;48.686;9.170;2023-07-24T08:14:12;21.00;99.90
39621;DHT22;25309;48.686;9.170;2023-07-24T08:16:39;21.00;99.90
39621;DHT22;25309;48.686;9.170;2023-07-24T08:19:06;21.00;99.90
39621;DHT22;25309;48.686;9.170;2023-07-24T08:21:33;20.90;99.90
39621;DHT22;25309;48.686;9.170;2023-07-24T08:24:01;20.70;99.90
39621;DHT22;25309;48.686;9.170;2023-07-24T08:26:29;20.50;99.90
39621;DHT22;25309;48.686;9.170;2023-07-24T08:28:56;20.40;99.90
39621;DHT22;25309;48.686;9.170;2023-07-24T08:31:24;20.40;99.90
39621;DHT22;25309;48.686;9.170;2023-07-24T08:33:51;20.30;99.90
39621;DHT22;25309;48.686;9.170;2023-07-24T08:36:18;20.20;99.90
39621;DHT22;25309;48.686;9.170;2023-07-24T08:38:45;20.10;99.90
39621;DHT22;25309;48.686;9.170;2023-07-24T08:41:14;20.00;99.90
39621;DHT22;25309;48.686;9.170;2023-07-24T08:43:42;20.00;99.90
39621;DHT22;25309;48.686;9.170;2023-07-24T08:46:10;20.00;99.90
39621;DHT22;25309;48.686;9.170;2023-07-24T08:48:41;19.90;99.90
39621;DHT22;25309;48.686;9.170;2023-07-24T08:51:10;19.90;99.90
39621;DHT22;25309;48.686;9.170;2023-07-24T08:53:38;19.90;99.90
39621;DHT22;25309;48.686;9.170;2023-07-24T08:56:07;19.90;99.90
39621;DHT22;25309;48.686;9.170;2023-07-24T08:58:35;19.90;99.90
39621;DHT22;25309;48.686;9.170;2023-07-24T09:01:03;19.90;99.90
39621;DHT22;25309;48.686;9.170;2023-07-24T09:03:31;20.00;99.90
39621;DHT22;25309;48.686;9.170;2023-07-24T09:06:00;20.00;99.90
39621;DHT22;25309;48.686;9.170;2023-07-24T09:08:36;20.10;99.90
39621;DHT22;25309;48.686;9.170;2023-07-24T09:11:04;20.10;99.90
39621;DHT22;25309;48.686;9.170;2023-07-24T09:13:32;20.20;99.90
39621;DHT22;25309;48.686;9.170;2023-07-24T09:15:59;20.20;99.90
39621;DHT22;25309;48.686;9.170;2023-07-24T09:18:26;20.20;99.90
39621;DHT22;25309;48.686;9.170;2023-07-24T09:20:53;20.30;99.90
39621;DHT22;25309;48.686;9.170;2023-07-24T09:23:27;20.30;99.90
39621;DHT22;25309;48.686;9.170;2023-07-24T09:25:57;20.40;99.90
39621;DHT22;25309;48.686;9.170;2023-07-24T09:28:24;20.40;99.90
39621;DHT22;25309;48.686;9.170;2023-07-24T09:30:53;20.50;99.90
39621;DHT22;25309;48.686;9.170;2023-07-24T09:33:20;20.40;99.90
39621;DHT22;25309;48.686;9.170;2023-07-24T09:35:57;20.30;99.90
39621;DHT22;25309;48.686;9.170;2023-07-24T09:38:26;20.30;99.90
39621;DHT22;25309;48.686;9.170;2023-07-24T09:40:53;20.30;99.90
39621;DHT22;25309;48.686;9.170;2023-07-24T09:43:23;20.30;99.90
39621;DHT22;25309;48.686;9.170;2023-07-24T09:45:54;20.30;99.90
39621;DHT22;25309;48.686;9.170;2023-07-24T09:48:24;20.40;99.90
39621;DHT22;25309;48.686;9.170;2023-07-24T09:50:55;20.30;99.90
39621;DHT22;25309;48.686;9.170;2023-07-24T09:53:31;20.40;99.90
39621;DHT22;25309;48.686;9.170;2023-07-24T09:56:00;20.40;99.90
39621;DHT22;25309;48.686;9.170;2023-07-24T09:58:28;20.40;99.90
39621;DHT22;25309;48.686;9.170;2023-07-24T10:00:56;20.40;99.90
39621;DHT22;25309;48.686;9.170;2023-07-24T10:03:24;20.40;99.90
39621;DHT22;25309;48.686;9.170;2023-07-24T10:05:52;20.40;99.90
39621;DHT22;25309;48.686;9.170;2023-07-24T10:08:20;20.40;99.90
39621;DHT22;25309;48.686;9.170;2023-07-24T10:10:49;20.40;99.90
39621;DHT22;25309;48.686;9.170;2023-07-24T10:13:20;20.30;99.90
39621;DHT22;25309;48.686;9.170;2023-07-24T10:15:48;20.30;99.90
39621;DHT22;25309;48.686;9.170;2023-07-24T10:18:16;20.30;99.90
39621;DHT22;25309;48.686;9.170;2023-07-24T10:20:45;20.30;99.90
39621;DHT22;25309;48.686;9.170;2023-07-24T10:23:17;20.30;99.90
39621;DHT22;25309;48.686;9.170;2023-07-24T10:25:45;20.20;99.90
39621;DHT22;25309;48.686;9.170;2023-07-24T10:28:13;20.20;99.90
39621;DHT22;25309;48.686;9.170;2023-07-24T10:30:43;20.20;99.90
39621;DHT22;25309;48.686;9.170;2023-07-24T10:33:13;20.10;99.90
39621;DHT22;25309;48.686;9.170;2023-07-24T10:35:42;20.10;99.90
39621;DHT22;25309;48.686;9.170;2023-07-24T10:38:10;20.10;99.90
39621;DHT22;25309;48.686;9.170;2023-07-24T10:40:38;19.90;99.90
39621;DHT22;25309;48.686;9.170;2023-07-24T10:43:06;19.70;99.90
39621;DHT22;25309;48.686;9.170;2023-07-24T10:45:46;19.40;99.90
39621;DHT22;25309;48.686;9.170;2023-07-24T10:48:14;19.20;99.90
39621;DHT22;25309;48.686;9.170;2023-07-24T10:50:42;19.00;99.90
39621;DHT22;25309;48.686;9.170;2023-07-24T10:53:10;19.00;99.90
39621;DHT22;25309;48.686;9.170;2023-07-24T10:55:38;18.80;99.90
39621;DHT22;25309;48.686;9.170;2023-07-24T10:58:06;18.70;99.90
39621;DHT22;25309;48.686;9.170;2023-07-24T11:00:33;18.70;99.90
39621;DHT22;25309;48.686;9.170;2023-07-24T11:03:02;18.60;99.90
39621;DHT22;25309;48.686;9.170;2023-07-24T11:05:29;18.50;99.90
39621;DHT22;25309;48.686;9.170;2023-07-24T11:07:56;18.50;99.90
39621;DHT22;25309;48.686;9.170;2023-07-24T11:10:23;18.50;99.90
39621;DHT22;25309;48.686;9.170;2023-07-24T11:12:50;18.50;99.90
39621;DHT22;25309;48.686;9.170;2023-07-24T11:15:24;18.40;99.90
39621;DHT22;25309;48.686;9.170;2023-07-24T11:17:54;18.40;99.90
39621;DHT22;25309;48.686;9.170;2023-07-24T11:20:22;18.40;99.90
39621;DHT22;25309;48.686;9.170;2023-07-24T11:22:49;18.30;99.90
39621;DHT22;25309;48.686;9.170;2023-07-24T11:25:16;18.30;99.90
39621;DHT22;25309;48.686;9.170;2023-07-24T11:27:44;18.30;99.90
39621;DHT22;25309;48.686;9.170;2023-07-24T11:30:11;18.40;99.90
39621;DHT22;25309;48.686;9.170;2023-07-24T11:32:40;18.40;99.90
39621;DHT22;25309;48.686;9.170;2023-07-24T11:35:08;18.50;99.90
39621;DHT22;25309;48.686;9.170;2023-07-24T11:37:37;18.60;99.90
39621;DHT22;25309;48.686;9.170;2023-07-24T11:40:05;18.80;99.90
39621;DHT22;25309;48.686;9.170;2023-07-24T11:42:38;19.00;99.90
39621;DHT22;25309;48.686;9.170;2023-07-24T11:45:07;19.60;99.90
39621;DHT22;25309;48.686;9.170;2023-07-24T11:47:44;19.90;99.90
39621;DHT22;25309;48.686;9.170;2023-07-24T11:50:11;20.00;99.90
39621;DHT22;25309;48.686;9.170;2023-07-24T11:52:41;20.10;99.90
39621;DHT22;25309;48.686;9.170;2023-07-24T11:55:10;20.20;99.90
39621;DHT22;25309;48.686;9.170;2023-07-24T11:57:37;20.20;99.90
39621;DHT22;25309;48.686;9.170;2023-07-24T12:00:05;20.10;99.90
39621;DHT22;25309;48.686;9.170;2023-07-24T12:02:33;20.00;99.90
39621;DHT22;25309;48.686;9.170;2023-07-24T12:05:01;20.00;99.90
39621;DHT22;25309;48.686;9.170;2023-07-24T12:07:32;20.00;99.90
39621;DHT22;25309;48.686;9.170;2023-07-24T12:10:01;20.10;99.90
39621;DHT22;25309;48.686;9.170;2023-07-24T12:12:38;20.50;99.90
39621;DHT22;25309;48.686;9.170;2023-07-24T12:15:06;21.00;99.90
39621;DHT22;25309;48.686;9.170;2023-07-24T12:17:34;21.30;99.90
39621;DHT22;25309;48.686;9.170;2023-07-24T12:20:01;21.60;99.90
39621;DHT22;25309;48.686;9.170;2023-07-24T12:22:28;21.60;99.90
39621;DHT22;25309;48.686;9.170;2023-07-24T12:24:57;21.70;99.90
39621;DHT22;25309;48.686;9.170;2023-07-24T12:27:25;21.90;99.90
39621;DHT22;25309;48.686;9.170;2023-07-24T12:29:52;22.10;99.90
39621;DHT22;25309;48.686;9.170;2023-07-24T12:32:20;22.20;99.90
39621;DHT22;25309;48.686;9.170;2023-07-24T12:34:47;22.20;99.90
39621;DHT22;25309;48.686;9.170;2023-07-24T12:37:14;22.20;99.90
39621;DHT22;25309;48.686;9.170;2023-07-24T12:39:41;22.20;99.90
39621;DHT22;25309;48.686;9.170;2023-07-24T12:42:08;22.10;99.90
39621;DHT22;25309;48.686;9.170;2023-07-24T12:44:37;21.80;99.90
39621;DHT22;25309;48.686;9.170;2023-07-24T12:47:04;21.90;99.90
39621;DHT22;25309;48.686;9.170;2023-07-24T12:49:31;22.00;99.90
39621;DHT22;25309;48.686;9.170;2023-07-24T12:51:58;22.10;99.90
39621;DHT22;25309;48.686;9.170;2023-07-24T12:54:25;22.30;99.90
39621;DHT22;25309;48.686;9.170;2023-07-24T12:57:12;22.50;99.90
39621;DHT22;25309;48.686;9.170;2023-07-24T12:59:41;22.60;99.90
39621;DHT22;25309;48.686;9.170;2023-07-24T13:02:08;22.50;99.90
39621;DHT22;25309;48.686;9.170;2023-07-24T13:04:35;22.50;99.90
39621;DHT22;25309;48.686;9.170;2023-07-24T13:07:02;22.70;99.90
39621;DHT22;25309;48.686;9.170;2023-07-24T13:09:31;22.80;99.90
39621;DHT22;25309;48.686;9.170;2023-07-24T13:11:58;22.90;99.90
39621;DHT22;25309;48.686;9.170;2023-07-24T13:14:25;23.10;99.90
39621;DHT22;25309;48.686;9.170;2023-07-24T13:16:53;23.20;99.90
39621;DHT22;25309;48.686;9.170;2023-07-24T13:19:20;23.30;99.90
39621;DHT22;25309;48.686;9.170;2023-07-24T13:21:47;23.20;99.90
39621;DHT22;25309;48.686;9.170;2023-07-24T13:24:14;23.20;99.90
39621;DHT22;25309;48.686;9.170;2023-07-24T13:26:41;23.10;99.90
39621;DHT22;25309;48.686;9.170;2023-07-24T13:29:09;23.10;99.90
39621;DHT22;25309;48.686;9.170;2023-07-24T13:31:36;23.20;99.90
39621;DHT22;25309;48.686;9.170;2023-07-24T13:34:05;23.00;99.90
39621;DHT22;25309;48.686;9.170;2023-07-24T13:36:32;22.80;99.90
39621;DHT22;25309;48.686;9.170;2023-07-24T13:38:59;22.80;99.90
39621;DHT22;25309;48.686;9.170;2023-07-24T13:41:26;22.90;99.90
39621;DHT22;25309;48.686;9.170;2023-07-24T13:43:53;23.00;99.90
39621;DHT22;25309;48.686;9.170;2023-07-24T13:46:20;22.90;99.90
39621;DHT22;25309;48.686;9.170;2023-07-24T13:48:47;22.90;99.90
39621;DHT22;25309;48.686;9.170;2023-07-24T13:51:15;22.90;99.90
39621;DHT22;25309;48.686;9.170;2023-07-24T13:53:42;22.80;99.90
39621;DHT22;25309;48.686;9.170;2023-07-24T13:56:09;22.60;99.90
39621;DHT22;25309;48.686;9.170;2023-07-24T13:58:37;22.60;99.90
39621;DHT22;25309;48.686;9.170;2023-07-24T14:01:04;22.60;99.90
39621;DHT22;25309;48.686;9.170;2023-07-24T14:03:33;22.60;99.90
39621;DHT22;25309;48.686;9.170;2023-07-24T14:06:01;22.60;99.90
39621;DHT22;25309;48.686;9.170;2023-07-24T14:08:29;22.60;99.90
39621;DHT22;25309;48.686;9.170;2023-07-24T14:10:56;22.70;99.90
39621;DHT22;25309;48.686;9.170;2023-07-24T14:13:24;22.80;99.90
39621;DHT22;25309;48.686;9.170;2023-07-24T14:15:51;23.00;99.90
39621;DHT22;25309;48.686;9.170;2023-07-24T14:18:18;23.20;99.90
39621;DHT22;25309;48.686;9.170;2023-07-24T14:20:45;23.30;99.90
39621;DHT22;25309;48.686;9.170;2023-07-24T14:23:13;23.30;99.90
39621;DHT22;25309;48.686;9.170;2023-07-24T14:25:42;23.30;99.90
39621;DHT22;25309;48.686;9.170;2023-07-24T14:28:09;23.30;99.90
39621;DHT22;25309;48.686;9.170;2023-07-24T14:30:36;23.50;99.90
39621;DHT22;25309;48.686;9.170;2023-07-24T14:33:03;23.70;99.90
39621;DHT22;25309;48.686;9.170;2023-07-24T14:35:30;23.50;99.90
39621;DHT22;25309;48.686;9.170;2023-07-24T14:37:57;23.40;99.90
39621;DHT22;25309;48.686;9.170;2023-07-24T14:40:24;23.20;99.90
39621;DHT22;25309;48.686;9.170;2023-07-24T14:42:52;23.00;99.90
39621;DHT22;25309;48.686;9.170;2023-07-24T14:45:19;23.00;99.90
39621;DHT22;25309;48.686;9.170;2023-07-24T14:47:46;23.00;99.90
39621;DHT22;25309;48.686;9.170;2023-07-24T14:50:15;23.00;99.90
39621;DHT22;25309;48.686;9.170;2023-07-24T14:52:43;23.00;99.90
39621;DHT22;25309;48.686;9.170;2023-07-24T14:55:10;23.00;99.90
39621;DHT22;25309;48.686;9.170;2023-07-24T14:57:37;23.10;99.90
39621;DHT22;25309;48.686;9.170;2023-07-24T15:00:07;23.20;99.90
39621;DHT22;25309;48.686;9.170;2023-07-24T15:02:35;23.00;99.90
39621;DHT22;25309;48.686;9.170;2023-07-24T15:05:02;22.90;99.90
39621;DHT22;25309;48.686;9.170;2023-07-24T15:07:29;22.70;99.90
39621;DHT22;25309;48.686;9.170;2023-07-24T15:09:56;22.50;99.90
39621;DHT22;25309;48.686;9.170;2023-07-24T15:12:23;22.40;99.90
39621;DHT22;25309;48.686;9.170;2023-07-24T15:14:51;22.30;99.90
39621;DHT22;25309;48.686;9.170;2023-07-24T15:17:19;22.20;99.90
39621;DHT22;25309;48.686;9.170;2023-07-24T15:19:46;22.20;99.90
39621;DHT22;25309;48.686;9.170;2023-07-24T15:22:13;22.20;99.90
39621;DHT22;25309;48.686;9.170;2023-07-24T15:24:41;22.20;99.90
39621;DHT22;25309;48.686;9.170;2023-07-24T15:27:09;22.20;99.90
39621;DHT22;25309;48.686;9.170;2023-07-24T15:29:36;22.10;99.90
39621;DHT22;25309;48.686;9.170;2023-07-24T15:32:04;22.10;99.90
39621;DHT22;25309;48.686;9.170;2023-07-24T15:34:32;22.00;99.90